Terminal Aerodrome Forecast
Issued by NWS Charleston, WV

Current Version | Previous Version | Graphics & Text | Print | Product List | Glossary On
Versions: 1 2 3 4 5 6 7 8 9 10 11 12 13 14 15 16 17 18 19 20 21 22 23 24
814
FTUS41 KRLX 290902 AAA
TAFPKB
TAF AMD
KPKB 290902Z 2909/3006 36005KT P6SM BKN015
     FM291300 03005KT P6SM BKN025
     FM291600 04005KT P6SM FEW200=

USA.gov is the U.S. government's official web portal to all federal, state and local government web resources and services.